Ana Sayfa
METAR-TAF:

METAR-TAF

Havaalanları :

Vineyard Haven, Massachusetts, Amerika Birleşik Devletleri

Enlem: 41-23-32N, Boylam: 070-37-00W, yükseklik: 20 m

Güncel hava durumu gözlemi

Rapor saat 23:53 UTC de 35 dakika önce yapıldı.
Rüzgar batıdan 12 kt ve 25 kt'a kadar ani rüzgarlar
Sıcaklık 4°C
Nem 41%
Basınç 1001 hPa
Görüş mesafesi: 16.1 km
6000 ft yükseklikte parçalı bulutlu

METAR: KMVY 272353Z AUTO 27012G25KT 10SM SCT060 04/M08 A2957 RMK AO2 PK WND 26029/2336 SLP012 T00391078 10083 20039 51046

Saat: 19:28 (00:28 UTC)


TAF: eksik

4.000'den fazla havaalanı için hava durumu gözlemleri ve tahminleri (METAR ve TAF raporları).

Kullanılabilir istasyonlar harita üzerinde sarı ve kırmızı noktalarla gösterilir.

İstasyonun adını görmek için fareyi noktanın üzerinde gezdirin.

Sonrasında hava gözlem ve tahminlerini görmek için tıklayın.

Haritayı değiştirmek için: yaklaştırmak için siyah artı işaretli yeşil düğmeye ve uzaklaştırmak için de eksi işaretli düğmeye hızla tıklayın; bitişik haritalar için yeşil okları kullanın.


METAR-TAF: